Time;durP1;ratioP1;P1;durP2;ratioP2;P2;SDS_P1;SDS_P2;PMS_P1;PMS_P2;Temp;Humidity;BMP_temperature;BMP_pressure;BME280_temperature;BME280_humidity;BME280_pressure;Samples;Min_cycle;Max_cycle;Signal;HPM_P1;HPM_P2
2021/08/03 00:00:11;;;;;;;10.88;3.58;;;;;;;;;;6250746;22;20023;-83
2021/08/03 00:02:42;;;;;;;5.78;2.95;;;;;;;;;;6277916;22;20032;-83
2021/08/03 00:05:10;;;;;;;11.15;3.13;;;;;;;;;;6252333;22;20035;-83
2021/08/03 00:07:37;;;;;;;8.25;3.08;;;;;;;;;;6278866;22;20079;-83
2021/08/03 00:10:08;;;;;;;9.60;2.80;;;;;;;;;;6279155;22;20074;-83
2021/08/03 00:12:35;;;;;;;4.88;2.70;;;;;;;;;;6252184;22;20110;-82
2021/08/03 00:15:02;;;;;;;8.43;2.85;;;;;;;;;;6251100;22;20274;-83
2021/08/03 00:17:30;;;;;;;6.85;2.42;;;;;;;;;;6249944;22;20378;-83
2021/08/03 00:19:58;;;;;;;8.18;3.00;;;;;;;;;;6277668;22;20034;-83
2021/08/03 00:22:24;;;;;;;5.35;2.63;;;;;;;;;;6275950;22;20075;-82
2021/08/03 00:24:51;;;;;;;12.57;3.08;;;;;;;;;;6276461;22;20276;-82
2021/08/03 00:27:18;;;;;;;4.68;3.22;;;;;;;;;;6278420;22;20120;-83
2021/08/03 00:29:44;;;;;;;6.38;3.10;;;;;;;;;;6279368;22;20027;-82
2021/08/03 00:32:11;;;;;;;7.88;2.90;;;;;;;;;;6247463;22;20093;-83
2021/08/03 00:34:41;;;;;;;4.82;2.95;;;;;;;;;;6247802;23;20054;-82
2021/08/03 00:37:09;;;;;;;5.72;2.85;;;;;;;;;;6228816;23;20028;-82
2021/08/03 00:39:36;;;;;;;5.97;2.85;;;;;;;;;;6254309;23;20072;-83
2021/08/03 00:42:04;;;;;;;6.35;3.08;;;;;;;;;;6230990;23;20115;-82
2021/08/03 00:44:41;;;;;;;8.27;3.47;;;;;;;;;;6254128;23;20020;-83
2021/08/03 00:47:09;;;;;;;4.68;3.10;;;;;;;;;;6226754;23;20081;-83
2021/08/03 00:49:35;;;;;;;8.68;3.25;;;;;;;;;;6223294;23;20478;-83
2021/08/03 00:52:04;;;;;;;7.55;3.28;;;;;;;;;;6223425;23;20024;-82
2021/08/03 00:54:31;;;;;;;5.35;3.67;;;;;;;;;;6248950;23;20024;-83
2021/08/03 00:57:00;;;;;;;7.50;3.22;;;;;;;;;;6248872;23;20062;-83
2021/08/03 00:59:28;;;;;;;10.50;3.42;;;;;;;;;;6248624;23;20020;-82
2021/08/03 01:01:55;;;;;;;9.88;3.03;;;;;;;;;;6247430;23;20020;-82
2021/08/03 01:04:25;;;;;;;4.93;3.13;;;;;;;;;;6247675;23;20027;-82
2021/08/03 01:06:52;;;;;;;5.20;2.92;;;;;;;;;;6222446;23;20291;-82
2021/08/03 01:09:41;;;;;;;6.72;3.20;;;;;;;;;;6247173;23;20510;-82
2021/08/03 01:12:30;;;;;;;7.22;3.22;;;;;;;;;;6220529;23;20027;-83
2021/08/03 01:15:01;;;;;;;4.05;2.92;;;;;;;;;;6248406;23;20048;-82
2021/08/03 01:17:33;;;;;;;3.80;2.75;;;;;;;;;;6248192;23;20024;-83
2021/08/03 01:20:03;;;;;;;5.95;2.97;;;;;;;;;;6219186;23;20094;-82
2021/08/03 01:22:35;;;;;;;5.40;3.38;;;;;;;;;;6221012;23;20024;-83
2021/08/03 01:25:13;;;;;;;5.70;3.13;;;;;;;;;;6246427;23;20028;-82
2021/08/03 01:27:59;;;;;;;9.73;3.65;;;;;;;;;;6221966;23;20418;-83
2021/08/03 01:30:25;;;;;;;6.57;4.00;;;;;;;;;;6247653;23;20024;-82
2021/08/03 01:32:54;;;;;;;8.77;3.67;;;;;;;;;;6234115;22;20030;-83
2021/08/03 01:35:23;;;;;;;10.48;3.58;;;;;;;;;;6252517;22;20082;-82
2021/08/03 01:37:58;;;;;;;7.97;4.18;;;;;;;;;;6252027;22;20031;-82
2021/08/03 01:40:26;;;;;;;10.48;3.60;;;;;;;;;;6253464;22;20095;-83
2021/08/03 01:42:55;;;;;;;7.53;3.42;;;;;;;;;;6276301;22;20472;-83
2021/08/03 01:45:25;;;;;;;6.82;3.35;;;;;;;;;;6251462;22;20394;-82
2021/08/03 01:47:53;;;;;;;6.90;4.13;;;;;;;;;;6280157;22;20115;-82
2021/08/03 01:50:21;;;;;;;9.00;4.10;;;;;;;;;;6280365;22;20078;-83
2021/08/03 01:52:50;;;;;;;8.15;4.25;;;;;;;;;;6272745;22;20016;-83
2021/08/03 01:55:17;;;;;;;11.35;4.07;;;;;;;;;;6274418;22;20071;-82
2021/08/03 01:57:45;;;;;;;6.95;3.40;;;;;;;;;;6252746;22;20024;-82
2021/08/03 02:00:12;;;;;;;8.85;3.60;;;;;;;;;;6279502;22;20512;-82
2021/08/03 02:02:38;;;;;;;6.47;3.67;;;;;;;;;;6251018;22;20054;-82
2021/08/03 02:05:09;;;;;;;8.02;3.85;;;;;;;;;;6252223;22;20094;-82
2021/08/03 02:07:36;;;;;;;7.10;3.90;;;;;;;;;;6279987;22;20111;-83
2021/08/03 02:10:03;;;;;;;9.73;4.03;;;;;;;;;;6251923;22;20055;-82
2021/08/03 02:12:31;;;;;;;9.48;4.00;;;;;;;;;;6279430;22;20047;-82
2021/08/03 02:14:59;;;;;;;6.85;3.78;;;;;;;;;;6252280;22;20102;-82
2021/08/03 02:17:25;;;;;;;9.77;3.60;;;;;;;;;;6249470;22;20055;-82
2021/08/03 02:19:52;;;;;;;10.57;4.50;;;;;;;;;;6251765;22;20024;-83
2021/08/03 02:22:19;;;;;;;9.15;4.05;;;;;;;;;;6252026;22;20046;-83
2021/08/03 02:24:46;;;;;;;8.50;5.22;;;;;;;;;;6278567;22;20078;-82
2021/08/03 02:27:16;;;;;;;8.38;5.93;;;;;;;;;;6278618;22;20381;-82
2021/08/03 02:29:44;;;;;;;14.75;5.40;;;;;;;;;;6280234;22;20023;-82
2021/08/03 02:32:14;;;;;;;9.00;5.43;;;;;;;;;;6248695;22;20034;-82
2021/08/03 02:34:41;;;;;;;11.80;5.18;;;;;;;;;;6248349;23;20055;-83
2021/08/03 02:37:11;;;;;;;11.30;5.28;;;;;;;;;;6250413;23;20441;-83
2021/08/03 02:39:38;;;;;;;11.65;5.80;;;;;;;;;;6267411;23;20028;-82
2021/08/03 02:42:06;;;;;;;10.30;5.07;;;;;;;;;;6269485;23;20024;-82
2021/08/03 02:44:33;;;;;;;10.45;5.50;;;;;;;;;;6253315;23;20249;-82
2021/08/03 02:47:07;;;;;;;8.70;5.22;;;;;;;;;;6225544;23;20054;-81
2021/08/03 02:49:35;;;;;;;8.80;5.05;;;;;;;;;;6232719;23;20058;-82
2021/08/03 02:52:03;;;;;;;10.48;5.88;;;;;;;;;;6239780;23;20036;-82
2021/08/03 02:54:35;;;;;;;10.57;5.95;;;;;;;;;;6226467;23;20095;-83
2021/08/03 02:57:04;;;;;;;9.27;5.55;;;;;;;;;;6222049;23;20031;-82
2021/08/03 02:59:32;;;;;;;10.07;6.07;;;;;;;;;;6221494;23;20309;-82
2021/08/03 03:01:59;;;;;;;9.73;6.22;;;;;;;;;;6220534;23;20035;-82
2021/08/03 03:04:34;;;;;;;10.07;5.68;;;;;;;;;;6247854;23;20086;-83
2021/08/03 03:07:13;;;;;;;8.32;5.05;;;;;;;;;;6247196;23;20028;-83
2021/08/03 03:09:40;;;;;;;9.68;6.28;;;;;;;;;;6220177;23;20240;-83
2021/08/03 03:12:17;;;;;;;12.98;5.90;;;;;;;;;;6246513;23;20168;-82
2021/08/03 03:14:43;;;;;;;;;;;;;;;;;;6223688;23;20087;-82
2021/08/03 03:17:10;;;;;;;13.15;6.47;;;;;;;;;;6248313;23;20010;-83
2021/08/03 03:19:38;;;;;;;11.55;5.35;;;;;;;;;;6221204;23;20021;-82
2021/08/03 03:22:06;;;;;;;10.85;5.93;;;;;;;;;;6250709;23;20020;-82
2021/08/03 03:24:33;;;;;;;9.88;6.75;;;;;;;;;;6250417;23;20028;-81
2021/08/03 03:27:00;;;;;;;12.25;6.55;;;;;;;;;;6225296;23;20043;-83
2021/08/03 03:29:27;;;;;;;12.82;7.07;;;;;;;;;;6248208;23;20039;-82
2021/08/03 03:31:55;;;;;;;19.80;8.30;;;;;;;;;;6248856;22;20107;-83
2021/08/03 03:34:31;;;;;;;12.70;6.63;;;;;;;;;;6252426;22;20028;-83
2021/08/03 03:36:58;;;;;;;15.70;6.67;;;;;;;;;;6252851;22;20023;-82
2021/08/03 03:39:25;;;;;;;15.82;7.28;;;;;;;;;;6251550;22;20034;-82
2021/08/03 03:41:56;;;;;;;13.88;6.93;;;;;;;;;;6279364;22;20019;-83
2021/08/03 03:44:23;;;;;;;12.20;7.20;;;;;;;;;;6279040;22;20024;-82
2021/08/03 03:46:56;;;;;;;13.70;8.05;;;;;;;;;;6252802;22;20083;-82
2021/08/03 03:49:27;;;;;;;16.35;7.13;;;;;;;;;;6252353;22;20086;-83
2021/08/03 03:51:55;;;;;;;16.77;8.38;;;;;;;;;;6251764;22;20027;-82
2021/08/03 03:54:29;;;;;;;13.00;8.55;;;;;;;;;;6279042;22;20028;-83
2021/08/03 03:57:03;;;;;;;16.67;7.50;;;;;;;;;;6251660;22;20240;-82
2021/08/03 03:59:30;;;;;;;16.75;8.30;;;;;;;;;;6251424;22;20286;-82
2021/08/03 04:02:02;;;;;;;19.42;8.77;;;;;;;;;;6249576;22;20047;-82
2021/08/03 04:04:30;;;;;;;13.75;7.72;;;;;;;;;;6252285;22;20089;-82
2021/08/03 04:07:00;;;;;;;12.15;7.70;;;;;;;;;;6278958;22;20119;-82
2021/08/03 04:09:26;;;;;;;11.75;7.55;;;;;;;;;;6259018;22;20088;-82
2021/08/03 04:11:59;;;;;;;12.45;7.60;;;;;;;;;;6285190;22;20031;-82
2021/08/03 04:14:27;;;;;;;13.00;7.78;;;;;;;;;;6282283;22;20027;-83
2021/08/03 04:16:55;;;;;;;16.65;8.38;;;;;;;;;;6281452;22;20123;-83
2021/08/03 04:19:24;;;;;;;15.65;8.60;;;;;;;;;;6279218;22;20415;-82
2021/08/03 04:22:00;;;;;;;15.70;7.88;;;;;;;;;;6251063;22;20023;-82
2021/08/03 04:24:26;;;;;;;12.40;8.43;;;;;;;;;;6276160;22;20144;-82
2021/08/03 04:26:53;;;;;;;14.57;8.10;;;;;;;;;;6278679;22;20024;-84
2021/08/03 04:29:25;;;;;;;17.35;8.75;;;;;;;;;;6249733;22;20081;-82
2021/08/03 04:31:51;;;;;;;15.02;7.97;;;;;;;;;;6248511;22;20030;-81
2021/08/03 04:34:21;;;;;;;14.00;7.32;;;;;;;;;;6249885;22;20030;-83
2021/08/03 04:36:50;;;;;;;11.95;7.35;;;;;;;;;;6249623;22;20023;-83
2021/08/03 04:39:19;;;;;;;15.27;8.10;;;;;;;;;;6249567;22;20045;-82
2021/08/03 04:41:47;;;;;;;14.77;8.32;;;;;;;;;;6249100;22;20473;-82
2021/08/03 04:44:16;;;;;;;14.68;8.82;;;;;;;;;;6275639;22;20047;-83
2021/08/03 04:46:43;;;;;;;18.33;8.63;;;;;;;;;;6245816;22;20280;-83
2021/08/03 04:49:09;;;;;;;13.80;7.95;;;;;;;;;;6248012;22;20083;-83
2021/08/03 04:51:43;;;;;;;12.63;7.82;;;;;;;;;;6247249;22;20063;-82
2021/08/03 04:54:09;;;;;;;14.13;7.45;;;;;;;;;;6274808;22;20349;-83
2021/08/03 04:56:36;;;;;;;14.52;8.35;;;;;;;;;;6272443;22;20024;-85
2021/08/03 04:59:06;;;;;;;14.85;8.57;;;;;;;;;;6251328;22;20023;-83
2021/08/03 05:01:32;;;;;;;11.23;7.88;;;;;;;;;;6281441;22;20023;-85
2021/08/03 05:04:00;;;;;;;12.50;7.70;;;;;;;;;;6281355;22;20184;-84
2021/08/03 05:06:27;;;;;;;10.85;7.00;;;;;;;;;;6254563;22;20035;-85
2021/08/03 05:08:57;;;;;;;10.20;6.75;;;;;;;;;;6268192;22;20090;-84
2021/08/03 05:11:23;;;;;;;14.50;5.50;;;;;;;;;;6267567;22;20074;-84
2021/08/03 05:13:50;;;;;;;8.15;4.78;;;;;;;;;;6279597;22;20301;-82
2021/08/03 05:16:24;;;;;;;6.43;4.35;;;;;;;;;;6277102;22;20023;-83
2021/08/03 05:18:51;;;;;;;9.52;4.60;;;;;;;;;;6280076;22;20035;-83
2021/08/03 05:21:17;;;;;;;7.45;3.58;;;;;;;;;;6282741;22;20028;-83
2021/08/03 05:24:25;;;;;;;8.68;3.85;;;;;;;;;;6286588;22;20043;-84
2021/08/03 05:26:52;;;;;;;7.60;3.80;;;;;;;;;;6251431;22;20038;-85
2021/08/03 05:29:19;;;;;;;10.32;3.28;;;;;;;;;;6276000;22;20088;-84
2021/08/03 05:31:48;;;;;;;6.85;3.60;;;;;;;;;;6249497;22;20027;-84
2021/08/03 05:34:15;;;;;;;4.75;3.67;;;;;;;;;;6248131;22;20039;-84
2021/08/03 05:36:41;;;;;;;5.93;3.47;;;;;;;;;;6245416;23;20361;-84
2021/08/03 05:39:12;;;;;;;6.65;3.15;;;;;;;;;;6217084;23;20087;-84
2021/08/03 05:41:41;;;;;;;11.40;3.20;;;;;;;;;;6244304;23;20047;-84
2021/08/03 05:44:07;;;;;;;8.35;3.00;;;;;;;;;;6242932;23;20043;-84
2021/08/03 05:46:34;;;;;;;6.50;3.10;;;;;;;;;;6247105;23;20404;-85
2021/08/03 05:49:02;;;;;;;7.13;2.85;;;;;;;;;;6250038;23;20105;-85
2021/08/03 05:51:28;;;;;;;4.07;2.80;;;;;;;;;;6246684;23;20111;-85
2021/08/03 05:53:55;;;;;;;6.43;3.03;;;;;;;;;;6246517;23;20039;-84
2021/08/03 05:56:31;;;;;;;5.57;2.35;;;;;;;;;;6244407;23;20077;-85
2021/08/03 05:58:57;;;;;;;;;;;;;;;;;;6262874;23;20070;-85
2021/08/03 06:01:24;;;;;;;7.95;3.33;;;;;;;;;;6255818;23;19915;-85
2021/08/03 06:03:51;;;;;;;7.68;2.80;;;;;;;;;;6222187;23;20024;-84
2021/08/03 06:06:19;;;;;;;10.18;2.78;;;;;;;;;;6221700;23;20269;-84
2021/08/03 06:08:46;;;;;;;3.70;2.20;;;;;;;;;;6220820;23;20118;-85
2021/08/03 06:11:26;;;;;;;5.32;2.85;;;;;;;;;;6221496;23;20024;-85
2021/08/03 06:13:55;;;;;;;6.32;2.97;;;;;;;;;;6218903;23;20086;-84
2021/08/03 06:16:24;;;;;;;6.60;2.40;;;;;;;;;;6247364;23;20046;-84
2021/08/03 06:18:53;;;;;;;6.20;2.65;;;;;;;;;;6244735;23;20024;-84
2021/08/03 06:21:20;;;;;;;9.65;2.53;;;;;;;;;;6217368;23;20169;-84
2021/08/03 06:23:47;;;;;;;7.20;2.33;;;;;;;;;;6216941;23;20024;-84
2021/08/03 06:26:19;;;;;;;7.40;2.70;;;;;;;;;;6218158;23;20024;-83
2021/08/03 06:28:50;;;;;;;7.38;2.33;;;;;;;;;;6246504;23;20024;-84
2021/08/03 06:31:18;;;;;;;7.97;2.63;;;;;;;;;;6217407;23;20024;-84
2021/08/03 06:33:49;;;;;;;5.80;2.25;;;;;;;;;;6244213;22;20173;-84
2021/08/03 06:36:16;;;;;;;9.35;2.67;;;;;;;;;;6248716;22;20167;-86
2021/08/03 06:38:42;;;;;;;4.47;2.05;;;;;;;;;;6247639;22;20257;-84
2021/08/03 06:41:19;;;;;;;4.57;2.05;;;;;;;;;;6246728;22;20123;-84
2021/08/03 06:44:09;;;;;;;3.83;2.15;;;;;;;;;;6256437;22;20038;-84
2021/08/03 06:46:38;;;;;;;6.43;2.60;;;;;;;;;;6265281;22;20035;-84
2021/08/03 06:49:08;;;;;;;3.13;1.90;;;;;;;;;;6287228;22;20028;-84
2021/08/03 06:51:38;;;;;;;5.90;1.88;;;;;;;;;;6286759;22;20020;-84
2021/08/03 06:54:11;;;;;;;3.60;1.60;;;;;;;;;;6286934;22;20024;-84
2021/08/03 06:56:58;;;;;;;8.88;1.45;;;;;;;;;;6276001;22;20059;-85
2021/08/03 06:59:32;;;;;;;2.65;1.35;;;;;;;;;;6243492;22;20099;-85
2021/08/03 07:02:06;;;;;;;4.80;1.50;;;;;;;;;;6285058;22;20024;-85
2021/08/03 07:04:46;;;;;;;3.55;1.40;;;;;;;;;;6278333;22;20174;-84
2021/08/03 07:07:13;;;;;;;3.35;1.20;;;;;;;;;;6248883;22;20405;-84
2021/08/03 07:09:43;;;;;;;8.18;2.10;;;;;;;;;;6275408;22;20031;-85
2021/08/03 07:12:10;;;;;;;4.00;1.50;;;;;;;;;;6282058;22;20078;-85
2021/08/03 07:14:38;;;;;;;2.70;0.73;;;;;;;;;;6255470;22;20012;-85
2021/08/03 07:17:12;;;;;;;2.28;0.88;;;;;;;;;;6278935;22;20035;-85
2021/08/03 07:19:39;;;;;;;2.42;0.50;;;;;;;;;;6251986;22;20043;-85
2021/08/03 07:22:11;;;;;;;2.30;0.57;;;;;;;;;;6250343;22;20024;-85
2021/08/03 07:24:47;;;;;;;2.60;0.80;;;;;;;;;;6277593;22;20397;-85
2021/08/03 07:27:14;;;;;;;4.45;1.00;;;;;;;;;;6250423;22;20031;-85
2021/08/03 07:29:41;;;;;;;4.53;1.23;;;;;;;;;;6277809;22;20031;-84
2021/08/03 07:32:08;;;;;;;2.67;0.93;;;;;;;;;;6277515;22;20554;-85
2021/08/03 07:34:36;;;;;;;2.22;0.80;;;;;;;;;;6277057;22;20353;-85
2021/08/03 07:37:03;;;;;;;2.78;0.77;;;;;;;;;;6276865;22;20055;-85
2021/08/03 07:39:29;;;;;;;2.13;0.60;;;;;;;;;;6282512;22;20495;-85
2021/08/03 07:41:58;;;;;;;1.85;0.52;;;;;;;;;;6252813;22;20091;-87
2021/08/03 07:44:35;;;;;;;2.70;0.85;;;;;;;;;;6257955;22;20011;-85
2021/08/03 07:47:02;;;;;;;2.95;0.82;;;;;;;;;;6267517;22;20050;-85
2021/08/03 07:49:31;;;;;;;2.45;0.80;;;;;;;;;;6292956;22;20035;-84
2021/08/03 07:51:58;;;;;;;1.85;0.77;;;;;;;;;;6262234;22;20019;-86
2021/08/03 07:54:24;;;;;;;3.55;1.10;;;;;;;;;;6288447;22;20088;-85
2021/08/03 07:56:51;;;;;;;1.60;0.80;;;;;;;;;;6281831;22;20403;-84
2021/08/03 07:59:18;;;;;;;2.95;0.82;;;;;;;;;;6252466;22;20183;-85
2021/08/03 08:01:44;;;;;;;3.35;0.90;;;;;;;;;;6278293;22;20070;-86
2021/08/03 08:04:12;;;;;;;2.97;0.80;;;;;;;;;;6252811;22;20221;-85
2021/08/03 08:06:43;;;;;;;2.08;0.85;;;;;;;;;;6278813;22;20443;-85
2021/08/03 08:09:17;;;;;;;2.45;0.60;;;;;;;;;;6253798;22;20116;-85
2021/08/03 08:11:43;;;;;;;2.78;0.55;;;;;;;;;;6249611;22;20055;-85
2021/08/03 08:14:10;;;;;;;4.18;0.40;;;;;;;;;;6277202;22;20034;-85
2021/08/03 08:16:39;;;;;;;1.25;0.40;;;;;;;;;;6277564;22;20020;-84
2021/08/03 08:19:06;;;;;;;2.08;0.60;;;;;;;;;;6252275;22;20264;-85
2021/08/03 08:21:33;;;;;;;2.47;0.50;;;;;;;;;;6251412;22;20087;-85
2021/08/03 08:24:15;;;;;;;2.65;0.60;;;;;;;;;;6277014;22;20098;-85
2021/08/03 08:26:42;;;;;;;1.20;0.55;;;;;;;;;;6290687;22;20030;-86
2021/08/03 08:29:08;;;;;;;2.63;0.63;;;;;;;;;;6266451;22;20023;-84
2021/08/03 08:31:35;;;;;;;2.33;0.52;;;;;;;;;;6278800;22;20062;-85
2021/08/03 08:34:08;;;;;;;1.33;0.52;;;;;;;;;;6274775;22;20031;-85
2021/08/03 08:36:35;;;;;;;2.58;0.82;;;;;;;;;;6276952;22;20028;-85
2021/08/03 08:39:02;;;;;;;2.45;0.70;;;;;;;;;;6274841;22;20275;-86
2021/08/03 08:41:29;;;;;;;4.63;1.10;;;;;;;;;;6275802;22;20238;-84
2021/08/03 08:43:56;;;;;;;3.42;1.15;;;;;;;;;;6248820;22;20030;-84
2021/08/03 08:46:22;;;;;;;3.53;0.77;;;;;;;;;;6275780;22;20140;-85
2021/08/03 08:49:06;;;;;;;2.38;0.80;;;;;;;;;;6249564;22;20035;-86
2021/08/03 08:51:33;;;;;;;2.67;0.60;;;;;;;;;;6274175;22;20114;-85
2021/08/03 08:54:02;;;;;;;1.58;0.60;;;;;;;;;;6277703;22;20026;-84
2021/08/03 08:56:30;;;;;;;1.80;0.47;;;;;;;;;;6262588;22;20092;-85
2021/08/03 08:58:59;;;;;;;2.85;0.75;;;;;;;;;;6259915;22;20054;-86
2021/08/03 09:01:26;;;;;;;3.28;0.75;;;;;;;;;;6251815;22;20049;-84
2021/08/03 09:03:53;;;;;;;2.15;0.70;;;;;;;;;;6247739;22;20078;-84
2021/08/03 09:06:21;;;;;;;4.30;0.75;;;;;;;;;;6259128;22;20069;-85
2021/08/03 09:08:49;;;;;;;2.03;0.60;;;;;;;;;;6258873;22;20036;-85
2021/08/03 09:11:20;;;;;;;2.55;0.50;;;;;;;;;;6281488;22;20035;-85
2021/08/03 09:13:54;;;;;;;2.35;0.52;;;;;;;;;;6247961;22;20180;-84
2021/08/03 09:16:23;;;;;;;0.95;0.40;;;;;;;;;;6251575;22;20265;-85
2021/08/03 09:18:53;;;;;;;1.20;0.50;;;;;;;;;;6278390;22;20089;-86
2021/08/03 09:21:22;;;;;;;2.47;0.43;;;;;;;;;;6250845;22;20030;-85
2021/08/03 09:23:51;;;;;;;3.55;0.50;;;;;;;;;;6274822;22;20034;-85
2021/08/03 09:26:39;;;;;;;2.97;0.50;;;;;;;;;;6238265;22;20505;-85
2021/08/03 09:29:10;;;;;;;3.47;0.68;;;;;;;;;;6276744;22;20051;-86
2021/08/03 09:31:40;;;;;;;2.83;0.60;;;;;;;;;;6250260;22;20035;-85
2021/08/03 09:34:14;;;;;;;0.85;0.40;;;;;;;;;;6248984;22;20340;-86
2021/08/03 09:36:55;;;;;;;0.68;0.55;;;;;;;;;;6275264;22;20031;-85
2021/08/03 09:39:44;;;;;;;2.13;0.50;;;;;;;;;;6277922;22;20081;-84
2021/08/03 09:42:24;;;;;;;0.85;0.45;;;;;;;;;;6274805;22;20050;-84
2021/08/03 09:44:51;;;;;;;4.03;0.40;;;;;;;;;;6248986;22;20063;-84
2021/08/03 09:47:24;;;;;;;4.05;0.70;;;;;;;;;;6250383;22;20412;-84
2021/08/03 09:49:53;;;;;;;1.33;0.40;;;;;;;;;;6250489;22;20034;-85
2021/08/03 09:52:24;;;;;;;1.75;0.47;;;;;;;;;;6274156;22;20020;-85
2021/08/03 09:55:05;;;;;;;2.00;0.70;;;;;;;;;;6274038;22;20028;-84
2021/08/03 09:57:39;;;;;;;1.95;0.20;;;;;;;;;;6246731;22;20023;-86
2021/08/03 10:00:26;;;;;;;0.90;0.25;;;;;;;;;;6275315;22;20019;-85
2021/08/03 10:02:54;;;;;;;1.98;0.50;;;;;;;;;;6273040;22;20108;-85
2021/08/03 10:05:21;;;;;;;1.55;0.30;;;;;;;;;;6274836;22;20085;-86
2021/08/03 10:07:48;;;;;;;3.00;0.50;;;;;;;;;;6251388;22;20031;-86
2021/08/03 10:10:15;;;;;;;1.65;0.50;;;;;;;;;;6250240;22;20027;-85
2021/08/03 10:12:41;;;;;;;3.05;0.80;;;;;;;;;;6250873;22;20378;-85
2021/08/03 10:15:10;;;;;;;2.17;0.52;;;;;;;;;;6279337;22;20368;-86
2021/08/03 10:17:37;;;;;;;0.95;0.50;;;;;;;;;;6252021;22;20058;-84
2021/08/03 10:20:09;;;;;;;1.02;0.40;;;;;;;;;;6249050;22;20398;-85
2021/08/03 10:22:37;;;;;;;2.08;0.52;;;;;;;;;;6248328;22;20038;-85
2021/08/03 10:25:06;;;;;;;1.92;0.50;;;;;;;;;;6274899;22;20127;-85
2021/08/03 10:27:53;;;;;;;1.23;0.50;;;;;;;;;;6247955;22;20039;-84
2021/08/03 10:30:29;;;;;;;1.30;0.40;;;;;;;;;;6238711;22;20235;-84
2021/08/03 10:32:57;;;;;;;1.25;0.50;;;;;;;;;;6270054;22;20251;-85
2021/08/03 10:35:38;;;;;;;2.13;0.68;;;;;;;;;;6247798;22;20137;-86
2021/08/03 10:38:06;;;;;;;2.05;0.60;;;;;;;;;;6243405;22;20019;-85
2021/08/03 10:40:46;;;;;;;1.27;0.70;;;;;;;;;;6272537;22;20110;-85
2021/08/03 10:43:13;;;;;;;1.95;0.65;;;;;;;;;;6276979;22;20062;-85
2021/08/03 10:45:39;;;;;;;1.35;0.50;;;;;;;;;;6263345;22;20101;-85
2021/08/03 10:48:06;;;;;;;1.73;0.57;;;;;;;;;;6263301;22;20144;-85
2021/08/03 10:50:33;;;;;;;1.48;0.50;;;;;;;;;;6288506;22;20015;-85
2021/08/03 10:53:04;;;;;;;3.03;0.60;;;;;;;;;;6285052;22;20027;-85
2021/08/03 10:55:32;;;;;;;1.75;0.60;;;;;;;;;;6247294;22;20137;-85
2021/08/03 10:58:24;;;;;;;4.45;0.60;;;;;;;;;;6271154;22;20024;-85
2021/08/03 11:00:54;;;;;;;1.00;0.45;;;;;;;;;;6243213;22;20034;-85
2021/08/03 11:03:30;;;;;;;1.73;0.60;;;;;;;;;;6274034;22;20028;-86
2021/08/03 11:06:17;;;;;;;1.70;0.52;;;;;;;;;;6249448;22;20106;-86
2021/08/03 11:08:44;;;;;;;1.10;0.43;;;;;;;;;;6270918;22;20286;-86
2021/08/03 11:11:27;;;;;;;1.20;0.40;;;;;;;;;;6270598;22;20028;-86
2021/08/03 11:13:54;;;;;;;1.05;0.32;;;;;;;;;;6247074;22;20290;-84
2021/08/03 11:16:20;;;;;;;0.80;0.40;;;;;;;;;;6245186;22;20087;-83
2021/08/03 11:18:51;;;;;;;1.23;0.40;;;;;;;;;;6243670;22;20028;-84
2021/08/03 11:21:19;;;;;;;2.78;0.98;;;;;;;;;;6257159;22;20193;-84
2021/08/03 11:23:57;;;;;;;1.15;0.50;;;;;;;;;;6242955;22;20028;-84
2021/08/03 11:26:29;;;;;;;2.03;0.40;;;;;;;;;;6243883;22;20038;-83
2021/08/03 11:29:01;;;;;;;3.92;0.60;;;;;;;;;;6248078;22;20027;-82
2021/08/03 11:31:44;;;;;;;4.72;0.82;;;;;;;;;;6246661;22;20039;-84
2021/08/03 11:34:12;;;;;;;1.70;0.60;;;;;;;;;;6246661;22;20405;-84
2021/08/03 11:36:53;;;;;;;0.80;0.45;;;;;;;;;;6247233;22;20207;-83
2021/08/03 11:39:27;;;;;;;1.27;0.57;;;;;;;;;;6274313;22;20047;-84
2021/08/03 11:41:54;;;;;;;2.65;0.75;;;;;;;;;;6246370;22;20025;-84
2021/08/03 11:44:21;;;;;;;1.08;0.50;;;;;;;;;;6272136;22;20098;-84
2021/08/03 11:46:54;;;;;;;2.10;0.55;;;;;;;;;;6287345;22;20067;-84
2021/08/03 11:49:28;;;;;;;2.65;0.57;;;;;;;;;;6265291;22;20038;-84
2021/08/03 11:52:03;;;;;;;2.78;0.80;;;;;;;;;;6252675;22;20045;-84
2021/08/03 11:54:30;;;;;;;2.40;0.80;;;;;;;;;;6246522;22;20028;-84
2021/08/03 11:57:00;;;;;;;0.45;0.32;;;;;;;;;;6243454;22;20024;-83
2021/08/03 11:59:31;;;;;;;0.93;0.40;;;;;;;;;;6251682;22;20021;-83
2021/08/03 12:01:58;;;;;;;2.92;0.93;;;;;;;;;;6288918;22;20028;-83
2021/08/03 12:04:26;;;;;;;1.45;0.50;;;;;;;;;;6256422;22;20034;-83
2021/08/03 12:06:56;;;;;;;0.75;0.43;;;;;;;;;;6248023;22;20027;-84
2021/08/03 12:09:35;;;;;;;1.17;0.95;;;;;;;;;;6276296;22;20031;-83
2021/08/03 12:12:02;;;;;;;3.58;0.80;;;;;;;;;;6262076;22;20037;-84
2021/08/03 12:14:34;;;;;;;2.72;0.63;;;;;;;;;;6261303;22;20014;-84
2021/08/03 12:17:03;;;;;;;3.17;0.50;;;;;;;;;;6281032;22;20145;-84
2021/08/03 12:19:43;;;;;;;3.22;0.57;;;;;;;;;;6241713;22;20040;-83
2021/08/03 12:22:26;;;;;;;1.02;0.57;;;;;;;;;;6242548;22;20027;-84
2021/08/03 12:24:55;;;;;;;1.27;0.68;;;;;;;;;;6242770;22;20034;-83
2021/08/03 12:27:39;;;;;;;2.70;0.50;;;;;;;;;;6268259;22;20047;-84
2021/08/03 12:30:06;;;;;;;2.40;0.88;;;;;;;;;;6244792;22;20050;-83
2021/08/03 12:32:39;;;;;;;3.67;0.85;;;;;;;;;;6246133;22;20031;-86
2021/08/03 12:35:12;;;;;;;1.52;0.70;;;;;;;;;;6247979;22;20023;-85
2021/08/03 12:37:42;;;;;;;0.73;0.40;;;;;;;;;;6247911;22;20024;-86
2021/08/03 12:40:28;;;;;;;0.82;0.40;;;;;;;;;;6272058;22;20100;-86
2021/08/03 12:43:01;;;;;;;1.48;0.60;;;;;;;;;;6245491;22;20294;-86
2021/08/03 12:45:27;;;;;;;1.35;0.77;;;;;;;;;;6271162;22;20110;-86
2021/08/03 12:47:55;;;;;;;1.85;0.70;;;;;;;;;;6245595;22;20062;-86
2021/08/03 12:50:22;;;;;;;1.08;0.47;;;;;;;;;;6243771;22;20193;-86
2021/08/03 12:52:57;;;;;;;2.63;0.55;;;;;;;;;;6268545;22;20043;-86
2021/08/03 12:55:26;;;;;;;0.82;0.40;;;;;;;;;;6239992;22;20071;-86
2021/08/03 12:57:56;;;;;;;1.40;0.60;;;;;;;;;;6266351;22;20242;-87
2021/08/03 13:00:29;;;;;;;1.65;0.50;;;;;;;;;;6267071;22;20303;-85
2021/08/03 13:03:00;;;;;;;5.10;1.40;;;;;;;;;;6242504;22;20028;-86
2021/08/03 13:05:28;;;;;;;8.80;2.70;;;;;;;;;;6244374;22;20024;-86
2021/08/03 13:07:55;;;;;;;2.80;1.40;;;;;;;;;;6240975;22;20244;-86
2021/08/03 13:10:22;;;;;;;1.98;0.70;;;;;;;;;;6265512;22;20028;-86
2021/08/03 13:12:49;;;;;;;2.45;0.65;;;;;;;;;;6266183;22;20226;-86
2021/08/03 13:15:17;;;;;;;3.10;0.60;;;;;;;;;;6266716;22;20223;-86
2021/08/03 13:17:45;;;;;;;2.65;0.70;;;;;;;;;;6243538;22;20270;-86
2021/08/03 13:20:12;;;;;;;1.88;0.68;;;;;;;;;;6237360;22;20043;-87
2021/08/03 13:22:39;;;;;;;2.20;0.77;;;;;;;;;;6238793;22;20071;-87
2021/08/03 13:25:07;;;;;;;3.13;0.80;;;;;;;;;;6265842;22;20035;-86
2021/08/03 13:27:35;;;;;;;3.55;1.02;;;;;;;;;;6265059;22;20291;-83
2021/08/03 13:30:03;;;;;;;2.08;0.70;;;;;;;;;;6236304;22;20085;-83
2021/08/03 13:32:30;;;;;;;5.40;0.80;;;;;;;;;;6238936;22;20075;-82
2021/08/03 13:34:57;;;;;;;6.70;0.88;;;;;;;;;;6265055;22;20046;-83
2021/08/03 13:37:24;;;;;;;2.13;0.70;;;;;;;;;;6234790;22;20074;-84
2021/08/03 13:39:54;;;;;;;2.22;0.70;;;;;;;;;;6237666;22;20167;-83
2021/08/03 13:42:21;;;;;;;1.05;0.70;;;;;;;;;;6263986;22;20428;-83
2021/08/03 13:44:48;;;;;;;1.73;0.55;;;;;;;;;;6238270;22;20301;-84
2021/08/03 13:47:20;;;;;;;1.83;0.70;;;;;;;;;;6250974;22;20023;-83
2021/08/03 13:49:47;;;;;;;1.95;0.80;;;;;;;;;;6235748;22;20055;-83
2021/08/03 13:52:15;;;;;;;3.55;1.08;;;;;;;;;;6236364;22;20028;-83
2021/08/03 13:54:42;;;;;;;3.75;0.95;;;;;;;;;;6237215;22;20031;-84
2021/08/03 13:57:09;;;;;;;1.17;0.70;;;;;;;;;;6235745;22;20095;-84
2021/08/03 13:59:37;;;;;;;3.97;0.68;;;;;;;;;;6262296;22;20409;-83
2021/08/03 14:02:05;;;;;;;1.98;0.70;;;;;;;;;;6239612;22;20233;-83
2021/08/03 14:04:39;;;;;;;2.05;0.63;;;;;;;;;;6243509;22;20513;-84
2021/08/03 14:07:08;;;;;;;2.15;0.52;;;;;;;;;;6262718;22;20108;-83
2021/08/03 14:09:35;;;;;;;1.67;0.68;;;;;;;;;;6241331;22;20028;-84
2021/08/03 14:12:08;;;;;;;2.33;0.70;;;;;;;;;;6237214;22;20409;-83
2021/08/03 14:14:34;;;;;;;2.25;0.57;;;;;;;;;;6264534;22;20195;-83
2021/08/03 14:17:03;;;;;;;1.00;0.70;;;;;;;;;;6241290;22;20079;-83
2021/08/03 14:19:30;;;;;;;4.20;0.70;;;;;;;;;;6265965;22;20023;-83
2021/08/03 14:22:00;;;;;;;1.80;1.00;;;;;;;;;;6241261;22;20019;-85
2021/08/03 14:24:26;;;;;;;2.95;0.80;;;;;;;;;;6269758;22;20285;-85
2021/08/03 14:26:53;;;;;;;1.98;1.00;;;;;;;;;;6243905;22;20030;-85
2021/08/03 14:29:23;;;;;;;3.70;0.80;;;;;;;;;;6271874;22;20166;-84
2021/08/03 14:31:49;;;;;;;2.40;0.80;;;;;;;;;;6269161;22;20038;-84
2021/08/03 14:34:16;;;;;;;1.70;0.88;;;;;;;;;;6245890;22;20027;-85
2021/08/03 14:36:47;;;;;;;2.75;0.70;;;;;;;;;;6272984;22;20405;-85
2021/08/03 14:39:13;;;;;;;1.98;0.90;;;;;;;;;;6246211;22;20020;-85
2021/08/03 14:41:40;;;;;;;5.82;1.30;;;;;;;;;;6249756;22;20024;-84
2021/08/03 14:44:07;;;;;;;5.32;1.40;;;;;;;;;;6244525;22;20327;-84
2021/08/03 14:46:34;;;;;;;5.70;1.10;;;;;;;;;;6243895;22;20044;-85
2021/08/03 14:49:01;;;;;;;4.70;1.48;;;;;;;;;;6246272;22;20028;-86
2021/08/03 14:51:29;;;;;;;2.80;1.15;;;;;;;;;;6249707;22;20035;-84
2021/08/03 14:53:55;;;;;;;4.85;1.30;;;;;;;;;;6255519;22;20027;-86
2021/08/03 14:56:22;;;;;;;2.83;1.02;;;;;;;;;;6286241;22;20034;-85